Terminal Aerodrome Forecast
Issued by NWS Pocatello, ID

Home | Current Version | Previous Version | Text Only | Print | Product List | Glossary On
Versions: 1 2 3 4 5 6 7 8 9 10 11 12 13 14
000
FTUS45 KPIH 301120
TAFBYI
TAF
KBYI 301120Z 3012/3112 15007KT P6SM SCT140 SCT250
     FM302100 29010KT P6SM VCTS SCT060CB BKN110 BKN200
     FM310400 23005KT P6SM SCT120 BKN200=

USA.gov is the U.S. government's official web portal to all federal, state and local government web resources and services.